createdAt,value
2022-09-04T00:05:20.432Z,97173.31
2022-09-04T00:10:31.059Z,97188.50
2022-09-04T00:15:39.274Z,97195.28
2022-09-04T00:20:50.493Z,97196.56
2022-09-04T00:26:02.960Z,97191.88
2022-09-04T00:31:39.138Z,97186.34
2022-09-04T00:36:49.922Z,97185.22
2022-09-04T00:42:16.406Z,97198.63
2022-09-04T00:47:27.185Z,97195.63
2022-09-04T00:52:58.165Z,97194.50
2022-09-04T00:58:23.997Z,97206.94
2022-09-04T01:03:38.781Z,97217.31
2022-09-04T01:09:03.316Z,97217.31
2022-09-04T01:14:22.755Z,97217.25
2022-09-04T01:19:50.946Z,97209.72
2022-09-04T01:25:26.635Z,97218.28
2022-09-04T01:30:37.495Z,97223.31
2022-09-04T01:36:03.836Z,97230.03
2022-09-04T01:41:24.297Z,97234.03
2022-09-04T01:46:47.714Z,97241.88
2022-09-04T01:52:04.977Z,97239.63
2022-09-04T01:57:15.773Z,97244.13
2022-09-04T02:02:34.677Z,97237.91
2022-09-04T02:07:43.284Z,97241.13
2022-09-04T02:12:58.368Z,97243.50
2022-09-04T02:18:37.712Z,97243.19
2022-09-04T02:24:14.100Z,97245.19
2022-09-04T02:29:23.446Z,97247.13
2022-09-04T02:34:30.766Z,97248.56
2022-09-04T02:39:45.850Z,97249.38
2022-09-04T02:45:12.028Z,97240.59
2022-09-04T02:50:21.420Z,97241.16
2022-09-04T02:55:44.481Z,97242.03
2022-09-04T03:00:54.297Z,97241.41
2022-09-04T03:06:06.880Z,97241.06
2022-09-04T03:11:30.180Z,97249.38
2022-09-04T03:17:03.546Z,97251.59
2022-09-04T03:22:14.420Z,97255.31
2022-09-04T03:27:18.902Z,97255.03
2022-09-04T03:32:42.843Z,97253.16
2022-09-04T03:38:14.452Z,97256.19
2022-09-04T03:43:16.126Z,97268.50
2022-09-04T03:48:48.599Z,97264.75
2022-09-04T03:54:09.088Z,97278.44
2022-09-04T03:59:38.058Z,97275.22
2022-09-04T04:04:57.739Z,97276.56
2022-09-04T04:10:25.176Z,97280.44
2022-09-04T04:15:45.380Z,97285.84
2022-09-04T04:21:28.254Z,97297.13
2022-09-04T04:27:04.050Z,97289.28
2022-09-04T04:32:30.083Z,97293.75
2022-09-04T04:37:59.338Z,97307.09
2022-09-04T04:43:31.036Z,97310.00
2022-09-04T04:49:12.919Z,97311.69
2022-09-04T04:54:42.711Z,97321.31
2022-09-04T05:00:27.380Z,97328.16
2022-09-04T05:05:53.982Z,97336.44
2022-09-04T05:11:04.082Z,97347.41
2022-09-04T05:16:26.503Z,97346.63
2022-09-04T05:21:49.157Z,97354.13
2022-09-04T05:27:20.325Z,97355.59
2022-09-04T05:32:38.147Z,97362.69
2022-09-04T05:37:56.399Z,97372.66
2022-09-04T05:43:26.088Z,97383.19
2022-09-04T05:49:07.025Z,97393.59
2022-09-04T05:54:33.403Z,97395.47
2022-09-04T05:59:42.531Z,97394.28
2022-09-04T06:05:08.563Z,97396.41
2022-09-04T06:10:22.432Z,97408.56
2022-09-04T06:15:37.443Z,97404.97
2022-09-04T06:20:44.561Z,97415.69
2022-09-04T06:26:15.146Z,97418.56
2022-09-04T06:31:19.979Z,97424.22
2022-09-04T06:36:49.805Z,97424.59
2022-09-04T06:42:09.524Z,97433.84
2022-09-04T06:47:25.763Z,97436.16
2022-09-04T06:52:42.067Z,97448.38
2022-09-04T06:57:47.069Z,97453.44
2022-09-04T07:03:07.009Z,97453.47
2022-09-04T07:08:30.899Z,97460.47
2022-09-04T07:13:56.537Z,97461.31
2022-09-04T07:19:22.734Z,97473.84
2022-09-04T07:24:52.608Z,97464.72
2022-09-04T07:30:14.809Z,97473.56
2022-09-04T07:35:34.531Z,97483.91
2022-09-04T07:40:44.601Z,97491.50
2022-09-04T07:45:53.928Z,97489.53
2022-09-04T07:51:33.346Z,97492.28
2022-09-04T07:56:53.844Z,97504.84
2022-09-04T08:02:14.414Z,97509.34
2022-09-04T08:07:59.150Z,97519.59
2022-09-04T08:13:39.695Z,97520.81
2022-09-04T08:19:07.284Z,97526.94
2022-09-04T08:24:32.321Z,97537.06
2022-09-04T08:29:47.483Z,97533.09
2022-09-04T08:35:01.921Z,97538.53
2022-09-04T08:40:34.764Z,97541.41
2022-09-04T08:45:42.641Z,97540.13
2022-09-04T08:51:26.620Z,97549.34
2022-09-04T08:57:07.277Z,97545.50
2022-09-04T09:02:30.451Z,97541.41
2022-09-04T09:07:59.245Z,97546.31
2022-09-04T09:13:42.538Z,97542.25
2022-09-04T09:18:47.252Z,97539.75
2022-09-04T09:24:25.993Z,97539.88
2022-09-04T09:29:59.881Z,97543.03
2022-09-04T09:35:06.894Z,97553.03
2022-09-04T09:40:31.742Z,97545.06
2022-09-04T09:45:46.772Z,97536.41
2022-09-04T09:51:02.583Z,97534.34
2022-09-04T09:56:35.065Z,97525.53
2022-09-04T10:01:46.088Z,97524.06
2022-09-04T10:07:27.094Z,97517.31
2022-09-04T10:13:13.560Z,97519.44
2022-09-04T10:18:45.837Z,97516.94
2022-09-04T10:23:50.385Z,97514.63
2022-09-04T10:29:20.927Z,97519.47
2022-09-04T10:34:50.909Z,97513.53
2022-09-04T10:40:34.525Z,97504.75
2022-09-04T10:45:45.074Z,97515.72
2022-09-04T10:51:20.949Z,97512.75
2022-09-04T10:56:36.378Z,97519.53
2022-09-04T11:02:11.652Z,97511.56
2022-09-04T11:07:29.787Z,97520.81
2022-09-04T11:12:55.955Z,97524.66
2022-09-04T11:18:25.387Z,97520.00
2022-09-04T11:23:48.599Z,97525.13
2022-09-04T11:29:08.916Z,97517.91
2022-09-04T11:34:44.465Z,97511.09
2022-09-04T11:40:03.365Z,97505.63
2022-09-04T11:45:29.065Z,97499.81
2022-09-04T11:50:36.815Z,97499.91
2022-09-04T11:55:59.865Z,97492.06
2022-09-04T12:01:16.132Z,97486.25
2022-09-04T12:06:56.306Z,97489.75
2022-09-04T12:12:12.349Z,97498.84
2022-09-04T12:17:50.092Z,97499.13
2022-09-04T12:23:12.450Z,97484.09
2022-09-04T12:28:48.304Z,97486.22
2022-09-04T12:34:05.448Z,97477.72
2022-09-04T12:39:27.037Z,97485.13
2022-09-04T12:44:43.929Z,97480.09
2022-09-04T12:50:01.171Z,97478.59
2022-09-04T12:55:33.371Z,97478.94
2022-09-04T13:01:00.023Z,97482.13
2022-09-04T13:06:23.378Z,97481.56
2022-09-04T13:11:31.366Z,97481.97
2022-09-04T13:16:41.873Z,97494.53
2022-09-04T13:22:14.729Z,97487.94
2022-09-04T13:27:34.837Z,97494.22
2022-09-04T13:32:53.539Z,97496.31
2022-09-04T13:38:15.222Z,97485.81
2022-09-04T13:43:47.902Z,97498.25
2022-09-04T13:49:16.409Z,97501.75
2022-09-04T13:54:33.262Z,97498.25
2022-09-04T13:59:35.726Z,97494.53
2022-09-04T14:04:45.074Z,97493.06
2022-09-04T14:09:50.148Z,97494.78
2022-09-04T14:14:59.582Z,97480.75
2022-09-04T14:20:31.398Z,97497.53
2022-09-04T14:25:45.105Z,97492.06
2022-09-04T14:31:22.934Z,97494.31
2022-09-04T14:36:45.833Z,97500.22
2022-09-04T14:41:54.496Z,97498.75
2022-09-04T14:47:03.228Z,97496.31
2022-09-04T14:52:14.972Z,97503.53
2022-09-04T14:57:51.487Z,97494.34
2022-09-04T15:03:12.067Z,97495.25
2022-09-04T15:08:27.087Z,97490.66
2022-09-04T15:13:28.921Z,97487.41
2022-09-04T15:18:41.931Z,97492.31
2022-09-04T15:23:52.916Z,97492.19
2022-09-04T15:29:16.203Z,97489.41
2022-09-04T15:34:24.494Z,97485.41
2022-09-04T15:39:32.753Z,97497.06
2022-09-04T15:44:41.242Z,97483.19
2022-09-04T15:49:50.422Z,97484.50
2022-09-04T15:55:11.347Z,97490.06
2022-09-04T16:00:15.707Z,97489.94
2022-09-04T16:05:45.075Z,97492.19
2022-09-04T16:10:54.850Z,97487.13
2022-09-04T16:16:05.593Z,97496.47
2022-09-04T16:21:27.238Z,97496.59
2022-09-04T16:26:33.016Z,97489.13
2022-09-04T16:31:36.805Z,97503.91
2022-09-04T16:36:48.193Z,97489.91
2022-09-04T16:42:10.253Z,97489.81
2022-09-04T16:47:37.120Z,97491.19
2022-09-04T16:52:43.654Z,97500.31
2022-09-04T16:58:07.520Z,97497.13
2022-09-04T17:03:21.621Z,97498.84
2022-09-04T17:08:39.313Z,97500.59
2022-09-04T17:13:55.406Z,97514.13
2022-09-04T17:18:57.352Z,97511.19
2022-09-04T17:29:04.939Z,97513.84
2022-09-04T17:29:44.656Z,97513.44
2022-09-04T17:40:34.822Z,97518.84
2022-09-04T17:41:38.039Z,97523.47
2022-09-04T17:46:28.440Z,97518.16
2022-09-04T17:51:34.766Z,97524.22
2022-09-04T17:56:45.474Z,97530.25
2022-09-04T18:02:05.028Z,97539.50
2022-09-04T18:08:07.667Z,97551.97
2022-09-04T18:13:36.563Z,97555.88
2022-09-04T18:18:49.157Z,97562.53
2022-09-04T18:24:10.136Z,97578.03
2022-09-04T18:33:55.623Z,97572.78
2022-09-04T18:37:25.319Z,97580.06
2022-09-04T18:45:32.658Z,97590.81
2022-09-04T18:50:21.914Z,97592.72
2022-09-04T18:51:52.428Z,97588.22
2022-09-04T18:57:01.028Z,97597.94
2022-09-04T19:02:21.237Z,97594.06
2022-09-04T19:07:41.039Z,97594.56
2022-09-04T19:12:46.867Z,97601.31
2022-09-04T19:17:55.423Z,97612.19
2022-09-04T19:23:05.502Z,97615.28
2022-09-04T19:28:39.430Z,97606.66
2022-09-04T19:33:59.760Z,97605.63
2022-09-04T19:45:56.146Z,97605.63
2022-09-04T19:46:25.721Z,97609.09
2022-09-04T19:53:20.030Z,97613.94
2022-09-04T19:56:08.434Z,97609.88
2022-09-04T20:01:20.209Z,97611.13
2022-09-04T20:06:30.123Z,97611.13
2022-09-04T20:11:39.477Z,97606.78
2022-09-04T20:17:08.768Z,97608.50
2022-09-04T20:22:45.300Z,97603.66
2022-09-04T20:27:54.107Z,97604.84
2022-09-04T20:33:21.565Z,97599.78
2022-09-04T20:38:32.361Z,97603.88
2022-09-04T20:44:03.499Z,97602.09
2022-09-04T20:52:50.476Z,97601.56
2022-09-04T20:54:54.172Z,97610.09
2022-09-04T21:03:08.664Z,97609.63
2022-09-04T21:06:06.829Z,97611.34
2022-09-04T21:11:39.697Z,97612.00
2022-09-04T21:16:43.927Z,97614.63
2022-09-04T21:22:01.081Z,97616.03
2022-09-04T21:27:14.642Z,97618.28
2022-09-04T21:32:34.900Z,97634.88
2022-09-04T21:37:46.606Z,97636.00
2022-09-04T21:43:35.875Z,97637.63
2022-09-04T21:49:26.381Z,97639.06
2022-09-04T21:59:11.585Z,97628.97
2022-09-04T22:02:36.346Z,97638.34
2022-09-04T22:09:31.941Z,97636.63
2022-09-04T22:13:33.323Z,97638.22
2022-09-04T22:18:04.354Z,97643.75
2022-09-04T22:23:30.769Z,97639.41
2022-09-04T22:29:09.756Z,97636.69
2022-09-04T22:34:39.687Z,97634.00
2022-09-04T22:40:15.640Z,97635.13
2022-09-04T22:45:54.577Z,97645.88
2022-09-04T22:51:16.566Z,97646.47
2022-09-04T22:56:52.523Z,97643.78
2022-09-04T23:02:13.691Z,97644.75
2022-09-04T23:11:05.690Z,97648.97
2022-09-04T23:13:56.777Z,97640.16
2022-09-04T23:26:36.428Z,97643.78
2022-09-04T23:26:47.009Z,97644.19
2022-09-04T23:30:54.785Z,97632.63
2022-09-04T23:36:37.557Z,97630.06
2022-09-04T23:41:48.811Z,97636.88
2022-09-04T23:47:48.258Z,97643.09
2022-09-04T23:53:22.100Z,97634.25
2022-09-04T23:59:03.837Z,97623.78
